Time;durP1;ratioP1;P1;durP2;ratioP2;P2;SDS_P1;SDS_P2;PMS_P1;PMS_P2;Temp;Humidity;BMP_temperature;BMP_pressure;BME280_temperature;BME280_humidity;BME280_pressure;Samples;Min_cycle;Max_cycle;Signal;HPM_P1;HPM_P2
2021/06/12 00:00:51;;;;;;;4.78;4.28;;;15.90;99.90;;;;;;5066754;28;20111;-76
2021/06/12 00:03:17;;;;;;;5.20;4.55;;;15.90;99.90;;;;;;5067526;28;20069;-76
2021/06/12 00:05:43;;;;;;;5.55;4.28;;;15.80;99.90;;;;;;5067931;28;20604;-76
2021/06/12 00:08:08;;;;;;;5.43;4.93;;;15.80;99.90;;;;;;5069801;28;20497;-76
2021/06/12 00:10:37;;;;;;;5.78;4.65;;;15.80;99.90;;;;;;5068139;28;20069;-75
2021/06/12 00:13:04;;;;;;;5.53;5.03;;;15.80;99.90;;;;;;5082552;23;20132;-74
2021/06/12 00:15:33;;;;;;;5.03;4.53;;;15.90;99.90;;;;;;5056690;28;20077;-74
2021/06/12 00:17:58;;;;;;;4.78;4.30;;;15.90;99.90;;;;;;5066908;28;20081;-74
2021/06/12 00:20:28;;;;;;;5.30;4.78;;;15.80;99.90;;;;;;5066099;28;20076;-74
2021/06/12 00:22:54;;;;;;;7.57;4.88;;;15.90;99.90;;;;;;5063664;28;20100;-74
2021/06/12 00:25:22;;;;;;;7.43;4.43;;;15.80;99.90;;;;;;5066752;28;20108;-74
2021/06/12 00:27:48;;;;;;;7.35;5.40;;;15.70;99.90;;;;;;5064685;28;20733;-74
2021/06/12 00:30:15;;;;;;;6.25;4.43;;;15.70;99.90;;;;;;5061015;28;20164;-74
2021/06/12 00:32:42;;;;;;;5.53;4.57;;;15.80;99.90;;;;;;5045246;28;20510;-74
2021/06/12 00:35:10;;;;;;;5.50;4.65;;;15.90;99.90;;;;;;5044071;28;20099;-74
2021/06/12 00:37:36;;;;;;;7.30;5.78;;;15.90;99.90;;;;;;5054064;28;20073;-74
2021/06/12 00:40:02;;;;;;;5.50;4.97;;;16.00;99.90;;;;;;5067445;28;20526;-74
2021/06/12 00:42:27;;;;;;;6.03;4.88;;;16.10;99.90;;;;;;5064164;28;20420;-74
2021/06/12 00:44:53;;;;;;;5.88;5.38;;;16.10;99.90;;;;;;5065576;28;20575;-74
2021/06/12 00:47:18;;;;;;;5.50;4.97;;;16.10;99.90;;;;;;5066704;28;20575;-74
2021/06/12 00:49:44;;;;;;;5.60;5.00;;;16.10;99.90;;;;;;5067648;28;20083;-74
2021/06/12 00:52:09;;;;;;;7.03;5.10;;;16.00;99.90;;;;;;5071071;28;20085;-72
2021/06/12 00:54:36;;;;;;;5.53;5.03;;;16.00;99.90;;;;;;5072327;28;20160;-72
2021/06/12 00:57:03;;;;;;;4.43;4.03;;;15.90;99.90;;;;;;5069956;28;20084;-75
2021/06/12 00:59:30;;;;;;;7.22;5.18;;;15.90;99.90;;;;;;5072030;28;20073;-72
2021/06/12 01:01:56;;;;;;;6.88;5.10;;;15.90;99.90;;;;;;5069819;28;20089;-76
2021/06/12 01:04:21;;;;;;;5.47;4.95;;;16.00;99.90;;;;;;5071316;28;20595;-73
2021/06/12 01:06:51;;;;;;;4.95;4.43;;;15.90;99.90;;;;;;5072423;28;20100;-75
2021/06/12 01:09:18;;;;;;;6.07;5.22;;;16.00;99.90;;;;;;5054987;28;20079;-75
2021/06/12 01:12:00;;;;;;;5.60;5.05;;;16.00;99.90;;;;;;5076997;28;20164;-72
2021/06/12 01:14:28;;;;;;;7.03;4.70;;;16.00;99.90;;;;;;5052597;28;20087;-77
2021/06/12 01:17:15;;;;;;;5.65;5.15;;;16.10;99.90;;;;;;5024395;28;20100;-73
2021/06/12 01:20:29;;;;;;;5.05;4.60;;;16.10;99.90;;;;;;5071542;28;20796;-74
2021/06/12 01:23:20;;;;;;;5.82;5.32;;;16.20;99.90;;;;;;5065330;28;20173;-72
2021/06/12 01:25:55;;;;;;;6.40;4.78;;;16.10;99.90;;;;;;5067224;28;20146;-73
2021/06/12 01:28:39;;;;;;;;;;;16.20;99.90;;;;;;5065428;28;20076;-72
2021/06/12 01:31:05;;;;;;;5.20;4.50;;;16.30;99.90;;;;;;5070856;28;20042;-76
2021/06/12 01:33:32;;;;;;;5.07;4.25;;;16.30;99.90;;;;;;5070517;28;20093;-72
2021/06/12 01:36:04;;;;;;;6.32;5.07;;;16.30;99.90;;;;;;5071787;28;20134;-72
2021/06/12 01:38:32;;;;;;;5.35;4.63;;;16.40;99.90;;;;;;5071932;28;20539;-76
2021/06/12 01:41:01;;;;;;;6.72;4.70;;;16.40;99.90;;;;;;5065651;28;20099;-74
2021/06/12 01:43:30;;;;;;;5.47;4.97;;;16.50;99.90;;;;;;5074100;28;20146;-72
2021/06/12 01:45:56;;;;;;;5.28;4.78;;;16.50;99.90;;;;;;5020274;28;21258;-74
2021/06/12 01:48:22;;;;;;;4.93;4.40;;;16.50;99.90;;;;;;5069870;28;20073;-72
2021/06/12 01:50:49;;;;;;;4.72;4.32;;;16.60;99.90;;;;;;5071704;28;20069;-72
2021/06/12 01:53:17;;;;;;;6.75;4.30;;;16.60;99.90;;;;;;5041076;28;20507;-72
2021/06/12 01:55:44;;;;;;;5.32;4.80;;;16.50;99.90;;;;;;5070739;28;20073;-73
2021/06/12 01:58:21;;;;;;;5.18;4.32;;;16.60;99.90;;;;;;5071093;28;20172;-72
2021/06/12 02:00:47;;;;;;;5.13;4.47;;;16.60;99.90;;;;;;5070114;28;20534;-73
2021/06/12 02:03:13;;;;;;;5.57;4.18;;;16.50;99.90;;;;;;5052052;28;20097;-72
2021/06/12 02:05:41;;;;;;;6.28;4.15;;;16.50;99.90;;;;;;5067594;28;20096;-73
2021/06/12 02:08:09;;;;;;;4.85;4.18;;;16.60;99.90;;;;;;5053831;28;20096;-74
2021/06/12 02:10:35;;;;;;;5.10;4.60;;;16.70;99.90;;;;;;5069162;28;20069;-74
2021/06/12 02:13:01;;;;;;;6.25;4.07;;;16.70;99.90;;;;;;5066080;28;20150;-75
2021/06/12 02:15:29;;;;;;;4.55;4.15;;;16.70;99.90;;;;;;5066502;28;20081;-73
2021/06/12 02:17:59;;;;;;;4.97;3.78;;;16.70;99.90;;;;;;5067810;28;20459;-73
2021/06/12 02:20:25;;;;;;;4.18;3.40;;;16.70;99.90;;;;;;5067626;28;20098;-73
2021/06/12 02:22:52;;;;;;;5.72;4.38;;;16.60;99.90;;;;;;5064891;28;20116;-73
2021/06/12 02:25:18;;;;;;;4.53;4.13;;;16.60;99.90;;;;;;5068930;28;20085;-72
2021/06/12 02:27:55;;;;;;;4.55;4.15;;;16.60;99.90;;;;;;5067904;28;20089;-73
2021/06/12 02:30:24;;;;;;;4.40;4.00;;;16.50;99.90;;;;;;5066030;28;20163;-73
2021/06/12 02:32:54;;;;;;;4.07;3.67;;;16.50;99.90;;;;;;5051833;28;20085;-73
2021/06/12 02:35:19;;;;;;;4.70;4.30;;;16.40;99.90;;;;;;5047553;28;20112;-73
2021/06/12 02:37:46;;;;;;;4.32;3.97;;;16.30;99.90;;;;;;5067437;28;20119;-73
2021/06/12 02:40:12;;;;;;;6.25;4.00;;;16.20;99.90;;;;;;5066999;28;21969;-73
2021/06/12 02:42:38;;;;;;;5.35;4.10;;;16.20;99.90;;;;;;5049086;28;20747;-73
2021/06/12 02:45:07;;;;;;;4.75;4.32;;;16.20;99.90;;;;;;5064567;28;20089;-72
2021/06/12 02:47:36;;;;;;;4.43;4.03;;;16.10;99.90;;;;;;5048318;28;21613;-73
2021/06/12 02:50:03;;;;;;;4.20;3.80;;;16.10;99.90;;;;;;5062743;28;20143;-73
2021/06/12 02:52:32;;;;;;;5.32;3.83;;;16.20;99.90;;;;;;5050408;28;20085;-73
2021/06/12 02:55:02;;;;;;;4.63;4.22;;;16.00;99.90;;;;;;5048398;28;20073;-73
2021/06/12 02:57:29;;;;;;;5.97;4.15;;;16.00;99.90;;;;;;5048547;28;20091;-73
2021/06/12 02:59:57;;;;;;;5.68;4.28;;;16.00;99.90;;;;;;5067145;28;20089;-73
2021/06/12 03:02:24;;;;;;;5.88;3.63;;;16.00;99.90;;;;;;5068281;28;20093;-73
2021/06/12 03:04:51;;;;;;;5.07;4.60;;;16.00;99.90;;;;;;5068443;28;20563;-73
2021/06/12 03:07:18;;;;;;;4.30;3.90;;;16.00;99.90;;;;;;5068587;28;20093;-73
2021/06/12 03:09:45;;;;;;;4.25;3.45;;;15.90;99.90;;;;;;5067299;28;20134;-73
2021/06/12 03:12:12;;;;;;;5.90;3.97;;;16.00;99.90;;;;;;5066940;28;20093;-72
2021/06/12 03:14:41;;;;;;;4.20;3.80;;;16.10;99.90;;;;;;5068177;28;20123;-73
2021/06/12 03:17:09;;;;;;;4.15;3.75;;;16.00;99.90;;;;;;5049796;28;20077;-73
2021/06/12 03:19:36;;;;;;;5.15;4.05;;;15.90;99.90;;;;;;5054270;28;20077;-73
2021/06/12 03:22:03;;;;;;;3.83;3.33;;;15.90;99.90;;;;;;5068293;28;20139;-73
2021/06/12 03:24:29;;;;;;;4.07;3.70;;;15.90;99.90;;;;;;5065188;28;20084;-73
2021/06/12 03:26:59;;;;;;;3.97;3.58;;;15.70;99.90;;;;;;5067367;28;20100;-73
2021/06/12 03:29:26;;;;;;;4.10;3.72;;;15.70;99.90;;;;;;5064830;28;20080;-73
2021/06/12 03:31:52;;;;;;;4.00;3.60;;;15.70;99.90;;;;;;5064913;28;20073;-73
2021/06/12 03:34:18;;;;;;;3.88;3.58;;;15.70;99.90;;;;;;5066378;28;20077;-73
2021/06/12 03:36:45;;;;;;;4.82;4.40;;;15.70;99.90;;;;;;5064211;28;20073;-73
2021/06/12 03:39:11;;;;;;;4.32;3.90;;;15.60;99.90;;;;;;5068581;28;20072;-73
2021/06/12 03:41:37;;;;;;;4.07;3.67;;;15.60;99.90;;;;;;5064258;28;21001;-73
2021/06/12 03:44:04;;;;;;;6.07;3.55;;;15.50;99.90;;;;;;5047888;28;20107;-73
2021/06/12 03:46:30;;;;;;;6.65;3.90;;;15.50;99.90;;;;;;5047973;28;20613;-73
2021/06/12 03:48:56;;;;;;;4.00;3.42;;;15.50;99.90;;;;;;5067448;28;20081;-73
2021/06/12 03:51:22;;;;;;;3.67;3.30;;;15.50;99.90;;;;;;5066476;28;20069;-73
2021/06/12 03:53:49;;;;;;;3.45;3.15;;;15.40;99.90;;;;;;5068184;28;20085;-73
2021/06/12 03:56:16;;;;;;;3.90;3.50;;;15.40;99.90;;;;;;5045128;28;20085;-73
2021/06/12 03:58:44;;;;;;;4.57;3.88;;;15.30;99.90;;;;;;5062702;28;20079;-73
2021/06/12 04:01:17;;;;;;;4.28;3.88;;;15.40;99.90;;;;;;5066028;28;20072;-73
2021/06/12 04:03:43;;;;;;;5.03;3.45;;;15.40;99.90;;;;;;5047990;28;20093;-73
2021/06/12 04:06:10;;;;;;;4.50;3.58;;;15.40;99.90;;;;;;5063843;28;20123;-73
2021/06/12 04:08:37;;;;;;;3.75;3.25;;;15.40;99.90;;;;;;5063929;28;20215;-73
2021/06/12 04:11:03;;;;;;;4.22;3.03;;;15.50;99.90;;;;;;5067115;28;20142;-71
2021/06/12 04:13:29;;;;;;;3.58;3.25;;;15.50;99.90;;;;;;5067202;28;20105;-72
2021/06/12 04:15:54;;;;;;;4.28;3.55;;;15.40;99.90;;;;;;5066681;28;20083;-74
2021/06/12 04:18:21;;;;;;;5.72;3.47;;;15.60;99.90;;;;;;5068159;28;20159;-75
2021/06/12 04:20:47;;;;;;;3.47;3.08;;;15.60;99.90;;;;;;5069399;28;20077;-71
2021/06/12 04:23:13;;;;;;;7.50;3.65;;;15.70;99.90;;;;;;5068999;28;20092;-72
2021/06/12 04:25:38;;;;;;;4.55;3.70;;;15.80;99.90;;;;;;5048971;28;20073;-73
2021/06/12 04:28:05;;;;;;;4.30;3.40;;;15.90;99.90;;;;;;5068652;28;20142;-74
2021/06/12 04:30:30;;;;;;;4.55;4.03;;;15.80;99.90;;;;;;5064133;28;20073;-72
2021/06/12 04:32:56;;;;;;;4.00;3.60;;;15.90;99.90;;;;;;5064596;28;20092;-73
2021/06/12 04:35:24;;;;;;;4.75;3.63;;;15.90;99.90;;;;;;5067052;28;20171;-72
2021/06/12 04:37:50;;;;;;;6.80;3.65;;;15.90;99.90;;;;;;5064923;28;20474;-72
2021/06/12 04:40:16;;;;;;;3.92;3.63;;;16.00;99.90;;;;;;5065924;28;20076;-73
2021/06/12 04:42:42;;;;;;;5.55;3.67;;;16.10;99.90;;;;;;5070035;28;20463;-73
2021/06/12 04:45:09;;;;;;;5.25;3.50;;;16.20;99.90;;;;;;5063270;28;20089;-74
2021/06/12 04:47:35;;;;;;;4.15;3.60;;;16.30;99.90;;;;;;5064720;28;20097;-73
2021/06/12 04:50:01;;;;;;;3.38;3.13;;;16.50;99.90;;;;;;5064723;28;20077;-73
2021/06/12 04:52:27;;;;;;;3.55;3.25;;;16.60;99.90;;;;;;5066091;28;20095;-74
2021/06/12 04:54:52;;;;;;;6.00;3.65;;;16.70;99.90;;;;;;5046304;28;20077;-74
2021/06/12 04:57:19;;;;;;;3.67;3.35;;;16.90;99.90;;;;;;5065834;28;20077;-74
2021/06/12 04:59:45;;;;;;;5.20;3.30;;;17.10;99.90;;;;;;5067122;28;20077;-73
2021/06/12 05:02:10;;;;;;;3.58;3.25;;;17.20;99.90;;;;;;5066995;28;20120;-73
2021/06/12 05:04:36;;;;;;;3.70;3.38;;;17.40;99.90;;;;;;5068168;28;20187;-75
2021/06/12 05:07:02;;;;;;;3.42;3.00;;;17.40;99.90;;;;;;5065165;28;20137;-74
2021/06/12 05:09:27;;;;;;;3.83;3.05;;;17.60;99.90;;;;;;5064335;28;20092;-74
2021/06/12 05:11:53;;;;;;;3.53;3.20;;;17.60;99.90;;;;;;5047918;28;20130;-74
2021/06/12 05:14:20;;;;;;;4.80;2.75;;;17.60;99.90;;;;;;5046895;28;20070;-74
2021/06/12 05:16:45;;;;;;;4.68;3.45;;;17.70;99.90;;;;;;5060650;28;20500;-74
2021/06/12 05:19:11;;;;;;;3.33;3.03;;;17.70;99.90;;;;;;5063838;28;20080;-73
2021/06/12 05:21:38;;;;;;;4.50;3.08;;;17.80;99.90;;;;;;5064194;28;20156;-73
2021/06/12 05:24:05;;;;;;;3.72;3.40;;;17.80;99.90;;;;;;5063195;28;20077;-73
2021/06/12 05:26:31;;;;;;;5.68;3.50;;;17.80;99.90;;;;;;5061470;28;20095;-73
2021/06/12 05:28:56;;;;;;;5.80;3.08;;;17.80;99.90;;;;;;5063465;28;20076;-73
2021/06/12 05:31:22;;;;;;;3.08;2.78;;;18.00;99.90;;;;;;5065012;28;20196;-73
2021/06/12 05:33:48;;;;;;;3.20;2.90;;;18.00;99.90;;;;;;5063195;28;20080;-73
2021/06/12 05:36:13;;;;;;;4.00;3.47;;;18.10;99.90;;;;;;5065340;28;20085;-73
2021/06/12 05:38:39;;;;;;;3.97;3.22;;;18.10;99.90;;;;;;5068270;28;20084;-73
2021/06/12 05:41:05;;;;;;;7.47;3.80;;;18.10;99.90;;;;;;5068505;28;20093;-73
2021/06/12 05:43:30;;;;;;;4.57;3.50;;;18.20;99.90;;;;;;5074197;28;20097;-73
2021/06/12 05:45:56;;;;;;;5.25;3.28;;;18.20;99.90;;;;;;5067474;28;20488;-73
2021/06/12 05:48:24;;;;;;;3.30;3.00;;;18.30;99.90;;;;;;5069653;28;20101;-74
2021/06/12 05:50:50;;;;;;;5.00;3.35;;;18.40;99.90;;;;;;5068746;28;20069;-73
2021/06/12 05:53:16;;;;;;;4.07;3.67;;;18.50;99.90;;;;;;5067490;28;20092;-73
2021/06/12 05:55:42;;;;;;;3.70;3.40;;;18.50;99.90;;;;;;5069386;28;21464;-73
2021/06/12 05:58:07;;;;;;;3.83;3.42;;;18.70;99.90;;;;;;5071119;28;20158;-73
2021/06/12 06:00:33;;;;;;;3.08;2.80;;;18.70;99.90;;;;;;5067398;28;20081;-73
2021/06/12 06:02:59;;;;;;;3.63;3.10;;;18.80;99.90;;;;;;5057852;28;20596;-73
2021/06/12 06:05:24;;;;;;;3.70;3.40;;;18.90;99.90;;;;;;5051487;28;20084;-73
2021/06/12 06:07:50;;;;;;;3.63;3.05;;;19.00;99.90;;;;;;5068282;28;20647;-73
2021/06/12 06:10:17;;;;;;;3.60;3.30;;;19.20;99.90;;;;;;5070341;28;20077;-73
2021/06/12 06:12:43;;;;;;;4.00;3.38;;;19.30;99.90;;;;;;5067494;28;20109;-73
2021/06/12 06:15:10;;;;;;;3.60;3.17;;;19.40;99.90;;;;;;5062181;28;20082;-73
2021/06/12 06:17:37;;;;;;;3.70;3.40;;;19.40;99.90;;;;;;5047078;28;20078;-73
2021/06/12 06:20:04;;;;;;;5.03;3.10;;;19.40;99.90;;;;;;5069363;28;20081;-73
2021/06/12 06:22:30;;;;;;;5.13;3.45;;;19.40;99.90;;;;;;5052585;28;20544;-74
2021/06/12 06:24:56;;;;;;;3.72;3.42;;;19.50;99.90;;;;;;5048546;28;20088;-73
2021/06/12 06:27:21;;;;;;;4.68;3.88;;;19.60;99.90;;;;;;5065416;28;20477;-74
2021/06/12 06:29:47;;;;;;;3.75;3.45;;;19.60;99.90;;;;;;5066871;28;20189;-73
2021/06/12 06:32:12;;;;;;;3.58;3.28;;;19.70;99.90;;;;;;5065214;28;20089;-72
2021/06/12 06:34:38;;;;;;;4.53;3.83;;;19.80;99.90;;;;;;5068146;28;20083;-73
2021/06/12 06:37:05;;;;;;;4.22;3.35;;;19.80;99.90;;;;;;5049518;28;20502;-72
2021/06/12 06:39:30;;;;;;;3.97;3.67;;;19.90;99.90;;;;;;5049093;28;20708;-73
2021/06/12 06:41:56;;;;;;;4.35;3.33;;;20.00;99.90;;;;;;5048533;28;20100;-73
2021/06/12 06:44:22;;;;;;;5.28;3.47;;;20.00;99.90;;;;;;5067964;28;20564;-72
2021/06/12 06:46:47;;;;;;;4.72;3.20;;;20.10;99.90;;;;;;5064557;28;20093;-72
2021/06/12 06:49:13;;;;;;;3.42;3.13;;;20.20;99.90;;;;;;5066139;28;20077;-72
2021/06/12 06:51:38;;;;;;;4.13;3.72;;;20.30;99.90;;;;;;5066525;28;20151;-73
2021/06/12 06:54:04;;;;;;;3.92;3.53;;;20.40;99.90;;;;;;5066254;28;20079;-73
2021/06/12 06:56:29;;;;;;;3.67;3.30;;;20.40;99.90;;;;;;5061314;28;20119;-73
2021/06/12 06:58:55;;;;;;;5.18;3.83;;;20.40;99.90;;;;;;5063860;28;20134;-73
2021/06/12 07:01:20;;;;;;;3.70;3.40;;;20.50;99.90;;;;;;5067920;28;20104;-73
2021/06/12 07:03:46;;;;;;;3.35;3.00;;;20.50;99.90;;;;;;5067960;28;20155;-73
2021/06/12 07:06:11;;;;;;;3.53;3.17;;;20.50;99.90;;;;;;5058787;28;20097;-73
2021/06/12 07:08:37;;;;;;;4.00;3.60;;;20.50;99.90;;;;;;5049315;28;20567;-72
2021/06/12 07:11:03;;;;;;;5.93;3.45;;;20.60;99.90;;;;;;5048812;28;20108;-73
2021/06/12 07:13:28;;;;;;;4.15;3.75;;;20.80;99.90;;;;;;5067265;28;20581;-73
2021/06/12 07:15:54;;;;;;;4.18;3.60;;;21.00;99.90;;;;;;5036259;28;20180;-73
2021/06/12 07:18:20;;;;;;;3.92;3.20;;;21.10;99.90;;;;;;5030523;28;20084;-75
2021/06/12 07:20:47;;;;;;;5.07;4.18;;;21.10;99.90;;;;;;5065661;28;20101;-75
2021/06/12 07:23:15;;;;;;;3.60;3.17;;;21.10;99.90;;;;;;5067050;28;20093;-75
2021/06/12 07:25:41;;;;;;;4.22;3.40;;;21.20;99.90;;;;;;5062802;28;20119;-75
2021/06/12 07:28:08;;;;;;;3.63;3.22;;;21.30;99.90;;;;;;5068981;28;20150;-75
2021/06/12 07:30:39;;;;;;;4.18;2.83;;;21.30;99.90;;;;;;5050953;28;20096;-73
2021/06/12 07:33:06;;;;;;;3.30;3.10;;;21.50;99.90;;;;;;5044854;28;20100;-72
2021/06/12 07:35:32;;;;;;;3.80;3.35;;;21.70;99.90;;;;;;5046531;28;20194;-73
2021/06/12 07:37:57;;;;;;;4.10;3.28;;;21.60;99.90;;;;;;5044364;28;20085;-73
2021/06/12 07:40:23;;;;;;;4.53;3.83;;;21.70;99.90;;;;;;5045885;28;20203;-74
2021/06/12 07:42:48;;;;;;;4.68;3.70;;;21.60;99.90;;;;;;5060906;28;20175;-75
2021/06/12 07:45:14;;;;;;;3.90;3.40;;;21.60;99.90;;;;;;5060860;28;20132;-73
2021/06/12 07:47:39;;;;;;;4.40;3.65;;;21.60;99.90;;;;;;5048253;28;20097;-73
2021/06/12 07:50:05;;;;;;;3.55;3.25;;;21.70;99.90;;;;;;5054429;28;20151;-73
2021/06/12 07:52:31;;;;;;;4.68;3.35;;;21.70;99.90;;;;;;5060611;28;20163;-73
2021/06/12 07:54:56;;;;;;;4.20;2.67;;;21.80;99.90;;;;;;5042824;28;20155;-73
2021/06/12 07:57:22;;;;;;;6.80;3.33;;;21.80;99.90;;;;;;5046297;28;20085;-77
2021/06/12 07:59:47;;;;;;;4.80;3.53;;;22.00;99.90;;;;;;5049499;28;20099;-74
2021/06/12 08:02:13;;;;;;;4.45;3.67;;;22.20;99.90;;;;;;5049115;28;20653;-72
2021/06/12 08:04:39;;;;;;;4.18;3.40;;;22.30;99.90;;;;;;5050131;28;20555;-74
2021/06/12 08:07:04;;;;;;;3.58;2.85;;;22.30;99.90;;;;;;5068284;28;20088;-74
2021/06/12 08:09:30;;;;;;;3.92;3.63;;;22.40;99.90;;;;;;5068447;28;20080;-72
2021/06/12 08:11:55;;;;;;;4.10;3.67;;;22.40;99.90;;;;;;5066383;28;20118;-72
2021/06/12 08:14:21;;;;;;;4.10;3.70;;;22.40;99.90;;;;;;5067516;28;20077;-72
2021/06/12 08:16:47;;;;;;;4.13;3.72;;;22.50;99.90;;;;;;5021417;28;20170;-80
2021/06/12 08:19:12;;;;;;;4.00;3.60;;;22.50;99.90;;;;;;5073286;28;20108;-73
2021/06/12 08:21:38;;;;;;;3.90;3.45;;;22.80;99.90;;;;;;5067504;28;20065;-74
2021/06/12 08:24:04;;;;;;;4.78;4.28;;;22.80;99.90;;;;;;5068497;28;20156;-71
2021/06/12 08:26:30;;;;;;;4.22;3.83;;;22.70;99.90;;;;;;5066969;28;20528;-72
2021/06/12 08:28:56;;;;;;;4.70;3.83;;;22.70;99.90;;;;;;5051107;28;20160;-75
2021/06/12 08:31:22;;;;;;;3.92;3.45;;;22.80;99.90;;;;;;5039834;28;20117;-74
2021/06/12 08:33:48;;;;;;;4.05;3.63;;;22.90;99.90;;;;;;5064261;28;20085;-73
2021/06/12 08:36:14;;;;;;;4.75;3.80;;;22.80;99.90;;;;;;5067890;28;20528;-73
2021/06/12 08:38:40;;;;;;;4.75;4.18;;;22.90;99.90;;;;;;5067314;28;20080;-74
2021/06/12 08:41:06;;;;;;;4.40;4.00;;;23.00;99.90;;;;;;5066024;28;20096;-74
2021/06/12 08:43:31;;;;;;;4.07;3.67;;;23.00;99.90;;;;;;5045497;28;20600;-73
2021/06/12 08:45:59;;;;;;;4.30;3.90;;;22.90;99.90;;;;;;5063429;28;20080;-75
2021/06/12 08:48:26;;;;;;;4.13;3.75;;;22.80;99.90;;;;;;5060441;28;20125;-74
2021/06/12 08:50:53;;;;;;;4.47;3.60;;;22.80;99.90;;;;;;5058307;28;20073;-73
2021/06/12 08:53:19;;;;;;;4.40;4.00;;;22.90;99.90;;;;;;5044609;28;20703;-74
2021/06/12 08:55:45;;;;;;;7.47;4.07;;;23.10;99.90;;;;;;5061674;28;20188;-75
2021/06/12 08:58:11;;;;;;;5.95;3.72;;;23.20;99.90;;;;;;5059282;28;20069;-74
2021/06/12 09:00:37;;;;;;;5.10;4.63;;;23.20;99.90;;;;;;5059761;28;20439;-73
2021/06/12 09:03:03;;;;;;;4.20;3.80;;;23.30;99.90;;;;;;5039787;28;20101;-73
2021/06/12 09:05:42;;;;;;;6.47;3.88;;;23.50;99.90;;;;;;5062922;28;20119;-73
2021/06/12 09:08:10;;;;;;;4.25;3.80;;;23.30;99.90;;;;;;5061837;28;20103;-74
2021/06/12 09:10:45;;;;;;;6.25;4.30;;;23.40;99.90;;;;;;5059849;28;20168;-74
2021/06/12 09:13:11;;;;;;;6.15;4.97;;;23.40;99.90;;;;;;5066880;28;20111;-74
2021/06/12 09:15:37;;;;;;;4.80;4.20;;;23.30;99.90;;;;;;5029228;28;20624;-73
2021/06/12 09:18:04;;;;;;;4.95;4.45;;;23.30;99.90;;;;;;5040948;28;20108;-74
2021/06/12 09:20:29;;;;;;;6.22;4.65;;;23.50;99.90;;;;;;5062763;28;20074;-74
2021/06/12 09:23:18;;;;;;;4.50;4.10;;;23.40;99.90;;;;;;5049846;28;20089;-73
2021/06/12 09:25:45;;;;;;;5.07;3.83;;;23.50;99.90;;;;;;5061728;28;20077;-73
2021/06/12 09:28:11;;;;;;;5.72;4.10;;;23.60;99.90;;;;;;5064175;28;20096;-73
2021/06/12 09:30:39;;;;;;;4.47;4.07;;;23.70;99.90;;;;;;5064074;28;20073;-74
2021/06/12 09:33:05;;;;;;;5.10;4.20;;;24.00;99.90;;;;;;5061398;28;20092;-73
2021/06/12 09:35:40;;;;;;;4.40;3.90;;;24.10;99.90;;;;;;5060474;28;20134;-74
2021/06/12 09:38:26;;;;;;;5.70;4.18;;;24.00;99.90;;;;;;5063256;28;20171;-74
2021/06/12 09:40:54;;;;;;;4.38;3.97;;;24.00;99.90;;;;;;5069756;28;20163;-76
2021/06/12 09:43:30;;;;;;;4.75;4.35;;;24.00;99.90;;;;;;5068446;28;20089;-74
2021/06/12 09:45:56;;;;;;;3.63;3.33;;;24.10;99.90;;;;;;5065287;28;20695;-74
2021/06/12 09:48:25;;;;;;;4.72;3.50;;;24.30;99.90;;;;;;5069987;28;20133;-73
2021/06/12 09:51:13;;;;;;;3.75;3.45;;;24.30;99.90;;;;;;5068179;28;20418;-73
2021/06/12 09:53:51;;;;;;;5.07;3.55;;;24.50;99.90;;;;;;5068301;28;20099;-73
2021/06/12 09:56:17;;;;;;;4.47;3.92;;;24.40;99.90;;;;;;5066791;28;20076;-73
2021/06/12 09:58:43;;;;;;;4.80;3.72;;;24.60;99.90;;;;;;5064319;28;20069;-73
2021/06/12 10:01:11;;;;;;;5.93;3.78;;;24.90;99.90;;;;;;5061308;28;20577;-73
2021/06/12 10:03:40;;;;;;;4.75;4.05;;;24.90;99.90;;;;;;5060393;28;20226;-73
2021/06/12 10:06:27;;;;;;;5.28;4.40;;;25.00;99.90;;;;;;5039775;28;20127;-75
2021/06/12 10:08:53;;;;;;;4.57;4.00;;;24.90;99.90;;;;;;5055424;28;20065;-75
2021/06/12 10:11:30;;;;;;;5.15;4.68;;;25.00;99.90;;;;;;5067864;28;20118;-74
2021/06/12 10:13:56;;;;;;;9.68;4.90;;;25.00;99.90;;;;;;5065206;28;20096;-74
2021/06/12 10:16:23;;;;;;;7.80;5.07;;;25.00;99.90;;;;;;5028476;28;20084;-75
2021/06/12 10:18:52;;;;;;;5.50;4.63;;;25.00;99.90;;;;;;5055889;28;20077;-73
2021/06/12 10:21:18;;;;;;;6.75;5.05;;;24.90;99.90;;;;;;5066630;28;20081;-74
2021/06/12 10:23:45;;;;;;;10.27;5.05;;;24.90;99.90;;;;;;5068900;28;20449;-76
2021/06/12 10:26:13;;;;;;;6.53;4.30;;;24.80;99.90;;;;;;5047897;28;20087;-74
2021/06/12 10:28:39;;;;;;;5.05;4.57;;;25.00;99.90;;;;;;5050764;28;20095;-73
2021/06/12 10:31:08;;;;;;;4.65;4.25;;;25.00;99.90;;;;;;5068409;28;20536;-72
2021/06/12 10:33:34;;;;;;;8.73;3.53;;;25.10;99.90;;;;;;5048573;28;20117;-73
2021/06/12 10:36:20;;;;;;;7.00;3.33;;;25.20;99.10;;;;;;5066850;28;20069;-71
2021/06/12 10:38:48;;;;;;;12.70;3.55;;;25.00;99.20;;;;;;5061952;28;20174;-72
2021/06/12 10:41:16;;;;;;;10.10;4.03;;;25.10;98.40;;;;;;5065432;28;20073;-71
2021/06/12 10:43:42;;;;;;;4.97;4.22;;;25.10;99.90;;;;;;5063252;28;20085;-72
2021/06/12 10:46:07;;;;;;;4.35;3.65;;;25.10;99.70;;;;;;5065225;28;20069;-72
2021/06/12 10:48:46;;;;;;;3.70;3.33;;;25.10;98.50;;;;;;5063592;28;20430;-72
2021/06/12 10:51:35;;;;;;;5.15;3.42;;;25.20;99.20;;;;;;5041021;28;20077;-72
2021/06/12 10:54:27;;;;;;;4.35;3.95;;;25.10;99.40;;;;;;5048544;28;20585;-72
2021/06/12 10:57:11;;;;;;;3.67;3.38;;;25.20;99.10;;;;;;5065622;28;20081;-72
2021/06/12 10:59:37;;;;;;;6.65;3.80;;;25.30;99.60;;;;;;5069621;28;20079;-72
2021/06/12 11:02:08;;;;;;;4.45;3.58;;;25.20;99.30;;;;;;5062832;28;20259;-72
2021/06/12 11:04:47;;;;;;;4.93;3.63;;;25.40;99.90;;;;;;5066436;28;20196;-72
2021/06/12 11:07:24;;;;;;;4.20;3.80;;;25.30;99.20;;;;;;5055990;28;20100;-73
2021/06/12 11:09:50;;;;;;;4.47;4.05;;;25.20;99.90;;;;;;5052778;28;20097;-73
2021/06/12 11:12:16;;;;;;;5.20;3.55;;;25.20;99.40;;;;;;5048469;28;20587;-73
2021/06/12 11:14:55;;;;;;;3.40;3.10;;;25.20;99.90;;;;;;5066377;28;20087;-73
2021/06/12 11:17:21;;;;;;;5.40;3.70;;;25.20;99.90;;;;;;5010987;28;20115;-73
2021/06/12 11:20:01;;;;;;;3.50;2.92;;;25.30;99.80;;;;;;5067959;28;20088;-73
2021/06/12 11:22:32;;;;;;;3.60;3.30;;;25.20;99.90;;;;;;5063565;28;20095;-73
2021/06/12 11:25:07;;;;;;;4.47;3.30;;;25.30;99.90;;;;;;5068537;28;20170;-73
2021/06/12 11:27:33;;;;;;;6.32;3.42;;;25.30;99.60;;;;;;5066912;28;20085;-73
2021/06/12 11:30:21;;;;;;;6.00;3.95;;;25.30;99.90;;;;;;5050075;28;20104;-73
2021/06/12 11:32:58;;;;;;;4.13;3.25;;;25.60;99.90;;;;;;5057618;28;20082;-73
2021/06/12 11:35:42;;;;;;;4.35;3.47;;;25.50;99.90;;;;;;5067665;28;20079;-73
2021/06/12 11:38:10;;;;;;;;;;;25.50;99.10;;;;;;5079927;22;20120;-75
2021/06/12 11:40:37;;;;;;;3.60;3.30;;;25.40;99.00;;;;;;5055998;28;19993;-75
2021/06/12 11:43:03;;;;;;;5.07;3.10;;;25.40;99.40;;;;;;5066274;28;20080;-75
2021/06/12 11:45:33;;;;;;;2.92;2.65;;;25.40;99.90;;;;;;5056966;28;20073;-76
2021/06/12 11:48:18;;;;;;;3.40;2.70;;;25.40;98.70;;;;;;5051123;28;20111;-75
2021/06/12 11:50:44;;;;;;;4.05;3.03;;;25.40;98.80;;;;;;5061294;28;20189;-75
2021/06/12 11:53:21;;;;;;;2.85;2.65;;;25.40;97.70;;;;;;5046759;28;20151;-76
2021/06/12 11:55:48;;;;;;;4.65;2.88;;;25.50;99.40;;;;;;5064004;28;21204;-76
2021/06/12 11:58:15;;;;;;;3.80;2.90;;;25.40;98.40;;;;;;5047139;28;20171;-75
2021/06/12 12:00:48;;;;;;;4.43;3.40;;;25.30;99.20;;;;;;5068427;28;20553;-76
2021/06/12 12:03:16;;;;;;;4.90;3.30;;;25.20;99.20;;;;;;5048738;28;20172;-76
2021/06/12 12:05:47;;;;;;;4.00;3.58;;;25.00;99.90;;;;;;5069181;28;20108;-75
2021/06/12 12:08:16;;;;;;;3.97;3.25;;;24.90;99.90;;;;;;5065200;28;20722;-75
2021/06/12 12:10:44;;;;;;;4.95;3.17;;;24.90;99.90;;;;;;5066701;28;20083;-76
2021/06/12 12:13:34;;;;;;;3.45;2.92;;;24.90;99.90;;;;;;5066673;28;20111;-76
2021/06/12 12:16:04;;;;;;;4.90;3.38;;;24.90;99.90;;;;;;5035026;28;20671;-76
2021/06/12 12:18:43;;;;;;;3.55;3.25;;;24.80;99.90;;;;;;5053806;28;20093;-75
2021/06/12 12:21:09;;;;;;;3.92;2.88;;;25.00;99.90;;;;;;5066854;28;20129;-73
2021/06/12 12:23:35;;;;;;;7.18;4.00;;;25.20;99.90;;;;;;5060854;28;20544;-74
2021/06/12 12:26:14;;;;;;;3.42;3.13;;;25.20;99.90;;;;;;5066051;28;20440;-73
2021/06/12 12:29:00;;;;;;;3.88;3.35;;;25.20;99.90;;;;;;5066268;28;20104;-75
2021/06/12 12:31:27;;;;;;;3.13;2.63;;;25.20;99.90;;;;;;5066518;28;20109;-74
2021/06/12 12:33:58;;;;;;;3.45;2.92;;;25.20;98.80;;;;;;5047658;28;20201;-77
2021/06/12 12:36:25;;;;;;;3.03;2.60;;;25.40;99.80;;;;;;5043033;28;20077;-76
2021/06/12 12:38:59;;;;;;;3.65;2.80;;;25.50;99.60;;;;;;5060250;28;20693;-76
2021/06/12 12:41:26;;;;;;;;;;;25.60;99.80;;;;;;5057127;28;20080;-76
2021/06/12 12:44:13;;;;;;;3.58;2.22;;;25.50;99.70;;;;;;5062579;28;19963;-75
2021/06/12 12:46:41;;;;;;;2.58;2.38;;;25.40;99.20;;;;;;5063516;28;20580;-75
2021/06/12 12:49:08;;;;;;;4.80;2.90;;;25.40;99.70;;;;;;5062317;28;20172;-75
2021/06/12 12:51:35;;;;;;;2.83;2.63;;;25.60;99.90;;;;;;5064567;28;20088;-76
2021/06/12 12:54:16;;;;;;;7.20;2.25;;;25.60;99.60;;;;;;5059602;28;20066;-75